Thomson Dream — 9HA2381 — position and weather

sailwx.info

Track history (hours):
 
Tides and Currents Weather Stations Pressure Air Temp Water Temp Dewpoint Dewpoint Depression Visibility Wind Speed Wind Dir Waves Ship Positions

Thomson Dream

Last reported at 2016-Jul-25 18:08 UTC. Time now 2016-Jul-26 04:26 UTC.
Position N 45°10' E 013°04'.

Length 243 m; draft 7.6 m.

Type: Ship. MMSI: 248480975.

Date/timePositionNaut miles runAvg speedWind from/ knotsBaromVisibWave heightAir tempDewpointWater temp
2016-Jul-25 18:08N 45°10' E 013°04'1118.7
2016-Jul-25 17:33N 45°19' E 012°55'1817.7
2016-Jul-25 16:34N 45°23' E 012°31'8 7.9
2016-Jul-25 15:34N 45°26' E 012°20'1 1.3
2016-Jul-25 14:32N 45°26' E 012°18'0 0.0
2016-Jul-25 13:26N 45°26' E 012°18'0 0.0
2016-Jul-25 12:32N 45°26' E 012°18'0 0.0
2016-Jul-25 11:32N 45°26' E 012°18'0 0.0
2016-Jul-25 10:26N 45°26' E 012°18'0 0.0
2016-Jul-25 09:32N 45°26' E 012°18'0 0.0
2016-Jul-25 07:29N 45°26' E 012°18'0 0.0
2016-Jul-25 06:32N 45°26' E 012°18'0 0.0
2016-Jul-25 05:33N 45°26' E 012°18'3 3.0
2016-Jul-25 04:33N 45°26' E 012°23'8 8.1
2016-Jul-25 03:33N 45°22' E 012°33'8 7.6
2016-Jul-25 02:33N 45°22' E 012°44'1 0.9
2016-Jul-25 01:33N 45°21' E 012°43'9 9.4
2016-Jul-25 00:33N 45°26' E 012°55'1111.5
2016-Jul-24 23:33N 45°31' E 013°09'1111.3
2016-Jul-24 22:33N 45°35' E 013°25'13 0.8
2016-Jul-24 05:28N 45°33' E 013°43'9 7.5
2016-Jul-24 04:12N 45°34' E 013°30'1015.3
2016-Jul-24 03:33N 45°28' E 013°18'1413.3
2016-Jul-24 02:32N 45°15' E 013°14'1211.6
2016-Jul-24 01:29N 45°03' E 013°20'1111.7
2016-Jul-24 00:33N 44°53' E 013°27'1211.6
2016-Jul-23 23:33N 44°44' E 013°35'1211.9
2016-Jul-23 22:33N 44°33' E 013°44'1211.8
2016-Jul-23 21:33N 44°24' E 013°54'1211.9
2016-Jul-23 20:33N 44°14' E 014°03'1211.8
2016-Jul-23 19:33N 44°04' E 014°12'1211.9
2016-Jul-23 18:33N 43°54' E 014°21'1212.1
2016-Jul-23 17:33N 43°44' E 014°30'1717.0
2016-Jul-23 16:33N 43°30' E 014°43'1717.2
2016-Jul-23 15:33N 43°15' E 014°56'1717.0
2016-Jul-23 14:34N 43°01' E 015°09'  
2016-Jul-19 21:33N 37°21' E 025°52'13 0.6
2016-Jul-19 01:09N 37°34' E 025°53'710.8
2016-Jul-19 00:32N 37°27' E 025°50'1111.2
2016-Jul-18 23:33N 37°16' E 025°52'101 3.5
2016-Jul-17 18:33N 37°32' E 023°46'1717.1
2016-Jul-17 17:34N 37°48' E 023°38'8 8.1
2016-Jul-17 16:32N 37°56' E 023°38'0 0.0
2016-Jul-17 15:32N 37°56' E 023°38'0 0.0
2016-Jul-17 14:32N 37°56' E 023°38'0 0.0
2016-Jul-17 13:32N 37°56' E 023°38'0 0.0
2016-Jul-17 12:32N 37°56' E 023°38'0 0.0
2016-Jul-17 11:32N 37°56' E 023°38'0 0.0
2016-Jul-17 10:32N 37°56' E 023°38'0 0.0
2016-Jul-17 09:32N 37°56' E 023°38'1 0.9
2016-Jul-17 08:34N 37°56' E 023°37'7 6.9
2016-Jul-17 07:33N 37°50' E 023°40'1717.0
2016-Jul-17 06:33N 37°33' E 023°45'5713.6
2016-Jul-17 02:24N 36°39' E 023°24'  
Track history (hours):
 
Tides and Currents Weather Stations Pressure Air Temp Water Temp Dewpoint Dewpoint Depression Visibility Wind Speed Wind Dir Waves Ship Positions

Thomson Dream

Last reported at 2016-Jul-25 18:08 UTC. Time now 2016-Jul-26 04:26 UTC.
Position N 45°10' E 013°04'.

Length 243 m; draft 7.6 m.

Type: Ship. MMSI: 248480975.

Date/timePositionNaut miles runAvg speedWind from/ knotsBaromVisibWave heightAir tempDewpointWater temp
2016-Jul-25 18:08N 45°10' E 013°04'1118.7
2016-Jul-25 17:33N 45°19' E 012°55'1817.7
2016-Jul-25 16:34N 45°23' E 012°31'8 7.9
2016-Jul-25 15:34N 45°26' E 012°20'1 1.3
2016-Jul-25 14:32N 45°26' E 012°18'0 0.0
2016-Jul-25 13:26N 45°26' E 012°18'0 0.0
2016-Jul-25 12:32N 45°26' E 012°18'0 0.0
2016-Jul-25 11:32N 45°26' E 012°18'0 0.0
2016-Jul-25 10:26N 45°26' E 012°18'0 0.0
2016-Jul-25 09:32N 45°26' E 012°18'0 0.0
2016-Jul-25 07:29N 45°26' E 012°18'0 0.0
2016-Jul-25 06:32N 45°26' E 012°18'0 0.0
2016-Jul-25 05:33N 45°26' E 012°18'3 3.0
2016-Jul-25 04:33N 45°26' E 012°23'8 8.1
2016-Jul-25 03:33N 45°22' E 012°33'8 7.6
2016-Jul-25 02:33N 45°22' E 012°44'1 0.9
2016-Jul-25 01:33N 45°21' E 012°43'9 9.4
2016-Jul-25 00:33N 45°26' E 012°55'1111.5
2016-Jul-24 23:33N 45°31' E 013°09'1111.3
2016-Jul-24 22:33N 45°35' E 013°25'13 0.8
2016-Jul-24 05:28N 45°33' E 013°43'9 7.5
2016-Jul-24 04:12N 45°34' E 013°30'1015.3
2016-Jul-24 03:33N 45°28' E 013°18'1413.3
2016-Jul-24 02:32N 45°15' E 013°14'1211.6
2016-Jul-24 01:29N 45°03' E 013°20'1111.7
2016-Jul-24 00:33N 44°53' E 013°27'1211.6
2016-Jul-23 23:33N 44°44' E 013°35'1211.9
2016-Jul-23 22:33N 44°33' E 013°44'1211.8
2016-Jul-23 21:33N 44°24' E 013°54'1211.9
2016-Jul-23 20:33N 44°14' E 014°03'1211.8
2016-Jul-23 19:33N 44°04' E 014°12'1211.9
2016-Jul-23 18:33N 43°54' E 014°21'1212.1
2016-Jul-23 17:33N 43°44' E 014°30'1717.0
2016-Jul-23 16:33N 43°30' E 014°43'1717.2
2016-Jul-23 15:33N 43°15' E 014°56'1717.0
2016-Jul-23 14:34N 43°01' E 015°09'  
2016-Jul-19 21:33N 37°21' E 025°52'13 0.6
2016-Jul-19 01:09N 37°34' E 025°53'710.8
2016-Jul-19 00:32N 37°27' E 025°50'1111.2
2016-Jul-18 23:33N 37°16' E 025°52'101 3.5
2016-Jul-17 18:33N 37°32' E 023°46'1717.1
2016-Jul-17 17:34N 37°48' E 023°38'8 8.1
2016-Jul-17 16:32N 37°56' E 023°38'0 0.0
2016-Jul-17 15:32N 37°56' E 023°38'0 0.0
2016-Jul-17 14:32N 37°56' E 023°38'0 0.0
2016-Jul-17 13:32N 37°56' E 023°38'0 0.0
2016-Jul-17 12:32N 37°56' E 023°38'0 0.0
2016-Jul-17 11:32N 37°56' E 023°38'0 0.0
2016-Jul-17 10:32N 37°56' E 023°38'0 0.0
2016-Jul-17 09:32N 37°56' E 023°38'1 0.9
2016-Jul-17 08:34N 37°56' E 023°37'7 6.9
2016-Jul-17 07:33N 37°50' E 023°40'1717.0
2016-Jul-17 06:33N 37°33' E 023°45'5713.6
2016-Jul-17 02:24N 36°39' E 023°24'  

Dump ship's entire track history